Arlington, Kentucky
Current Conditions -  °F | °C
As of 4:15 PM on Thursday 18 Dec 2014 (Local Time) from KCIR Reporting Station
Overcast Overcast  
Wind Chill: 34°   Ceiling: 1100
Heat Index: 38°   Visibility: 7mi
Dew Point: 34°   Wind: 5mph
Humidity: 86%   Direction: 70°ENE
Pressure: 30.23"   Gusts: NA
Location:  36.79°N, 89.01°W
Report Text: KCIR 182215Z AUTO 07004KT 7SM OVC011 03/01 A3023 RMK AO2 T00330011
Loading
Personal Weather Stations






























Interactive Weather Map New forecast layout! Learn more

10-Day Weather Forecast

Advertisements
Track Severe Weather on mobile